createdAt,value
2023-03-17T00:01:15.366Z,4.05
2023-03-17T00:03:20.608Z,4.90
2023-03-17T00:05:25.708Z,4.63
2023-03-17T00:07:27.288Z,4.25
2023-03-17T00:09:28.786Z,4.47
2023-03-17T00:11:30.357Z,4.15
2023-03-17T00:13:31.961Z,4.00
2023-03-17T00:15:33.582Z,4.65
2023-03-17T00:17:35.106Z,4.43
2023-03-17T00:19:36.761Z,4.63
2023-03-17T00:21:39.725Z,4.90
2023-03-17T00:23:43.610Z,3.90
2023-03-17T00:25:45.543Z,4.20
2023-03-17T00:27:47.097Z,4.70
2023-03-17T00:29:48.656Z,4.18
2023-03-17T00:31:50.372Z,4.32
2023-03-17T00:33:53.797Z,4.57
2023-03-17T00:35:56.882Z,4.72
2023-03-17T00:38:00.091Z,5.00
2023-03-17T00:40:01.630Z,5.78
2023-03-17T00:42:03.414Z,5.70
2023-03-17T00:44:05.115Z,4.97
2023-03-17T00:46:12.220Z,4.75
2023-03-17T00:48:15.719Z,5.15
2023-03-17T00:50:19.731Z,4.18
2023-03-17T00:52:21.254Z,4.60
2023-03-17T00:54:24.233Z,4.85
2023-03-17T00:56:25.844Z,4.68
2023-03-17T00:58:29.623Z,5.32
2023-03-17T01:00:31.466Z,4.30
2023-03-17T01:02:33.407Z,4.25
2023-03-17T01:04:35.120Z,5.30
2023-03-17T01:06:36.943Z,4.55
2023-03-17T01:08:39.787Z,4.03
2023-03-17T01:10:42.738Z,3.83
2023-03-17T01:12:46.522Z,4.70
2023-03-17T01:14:48.125Z,4.50
2023-03-17T01:16:49.859Z,5.78
2023-03-17T01:18:51.471Z,4.97
2023-03-17T01:20:53.066Z,4.55
2023-03-17T01:22:55.115Z,4.85
2023-03-17T01:24:56.602Z,4.55
2023-03-17T01:26:59.536Z,5.47
2023-03-17T01:29:01.067Z,5.20
2023-03-17T01:31:02.654Z,4.72
2023-03-17T01:33:05.564Z,4.60
2023-03-17T01:35:07.837Z,5.07
2023-03-17T01:37:09.599Z,4.80
2023-03-17T01:39:11.273Z,5.05
2023-03-17T01:41:13.262Z,4.35
2023-03-17T01:43:20.066Z,4.80
2023-03-17T01:45:59.060Z,5.82
2023-03-17T01:48:00.646Z,5.65
2023-03-17T01:50:06.642Z,5.95
2023-03-17T01:52:11.795Z,5.70
2023-03-17T01:54:18.448Z,6.38
2023-03-17T01:56:20.533Z,6.05
2023-03-17T01:58:24.457Z,5.25
2023-03-17T02:00:26.866Z,5.18
2023-03-17T02:04:33.126Z,5.30
2023-03-17T02:06:35.831Z,4.93
2023-03-17T02:08:38.576Z,5.75
2023-03-17T02:10:41.616Z,5.22
2023-03-17T02:12:45.864Z,5.38
2023-03-17T02:14:48.827Z,5.30
2023-03-17T02:16:50.565Z,6.25
2023-03-17T02:18:52.272Z,6.13
2023-03-17T02:21:30.042Z,5.90
2023-03-17T02:23:31.722Z,5.13
2023-03-17T02:25:35.998Z,5.38
2023-03-17T02:27:41.656Z,5.68
2023-03-17T02:29:43.257Z,5.60
2023-03-17T02:31:52.311Z,5.38
2023-03-17T02:33:54.523Z,5.80
2023-03-17T02:35:56.132Z,5.85
2023-03-17T02:37:59.052Z,6.47
2023-03-17T02:40:00.714Z,6.07
2023-03-17T02:42:02.419Z,6.20
2023-03-17T02:44:04.306Z,7.05
2023-03-17T02:46:05.976Z,6.25
2023-03-17T02:48:07.932Z,6.28
2023-03-17T02:50:18.043Z,5.50
2023-03-17T02:52:19.753Z,6.57
2023-03-17T02:54:22.785Z,7.30
2023-03-17T02:56:24.396Z,6.88
2023-03-17T02:58:26.018Z,6.72
2023-03-17T03:00:28.107Z,6.88
2023-03-17T03:02:29.944Z,6.32
2023-03-17T03:04:31.550Z,7.78
2023-03-17T03:06:33.323Z,6.50
2023-03-17T03:08:35.274Z,6.75
2023-03-17T03:10:38.203Z,7.05
2023-03-17T03:12:39.753Z,7.32
2023-03-17T03:14:41.507Z,7.68
2023-03-17T03:16:43.154Z,7.22
2023-03-17T03:18:44.716Z,7.68
2023-03-17T03:20:47.048Z,7.68
2023-03-17T03:22:48.615Z,7.80
2023-03-17T03:24:50.356Z,7.95
2023-03-17T03:26:53.480Z,7.63
2023-03-17T03:28:55.327Z,6.97
2023-03-17T03:30:57.024Z,8.13
2023-03-17T03:32:59.084Z,8.52
2023-03-17T03:35:00.730Z,8.40
2023-03-17T03:37:02.372Z,9.23
2023-03-17T03:39:03.954Z,8.65
2023-03-17T03:41:05.823Z,9.77
2023-03-17T03:43:21.785Z,8.35
2023-03-17T03:45:24.838Z,7.90
2023-03-17T03:47:26.429Z,7.95
2023-03-17T03:49:28.155Z,9.00
2023-03-17T03:51:29.826Z,9.13
2023-03-17T03:53:31.484Z,9.15
2023-03-17T03:55:33.155Z,9.23
2023-03-17T03:57:34.777Z,9.20
2023-03-17T03:59:38.118Z,8.75
2023-03-17T04:01:39.780Z,8.40
2023-03-17T04:03:41.561Z,9.95
2023-03-17T04:05:43.191Z,9.07
2023-03-17T04:07:45.550Z,8.90
2023-03-17T04:09:47.157Z,9.15
2023-03-17T04:11:48.798Z,9.15
2023-03-17T04:13:50.377Z,10.00
2023-03-17T04:15:53.350Z,9.90
2023-03-17T04:17:54.979Z,10.88
2023-03-17T04:19:56.551Z,8.88
2023-03-17T04:21:58.303Z,10.68
2023-03-17T04:23:59.950Z,11.00
2023-03-17T04:26:01.618Z,11.82
2023-03-17T04:28:03.365Z,13.85
2023-03-17T04:30:06.708Z,13.98
2023-03-17T04:32:10.785Z,14.95
2023-03-17T04:34:15.698Z,17.40
2023-03-17T04:36:18.994Z,19.05
2023-03-17T04:38:20.688Z,16.83
2023-03-17T04:40:22.570Z,16.85
2023-03-17T04:42:24.125Z,15.82
2023-03-17T04:44:25.728Z,17.25
2023-03-17T04:46:27.326Z,14.20
2023-03-17T04:48:30.299Z,11.90
2023-03-17T04:50:32.186Z,11.80
2023-03-17T04:52:34.391Z,11.88
2023-03-17T04:54:36.151Z,11.30
2023-03-17T04:56:37.801Z,11.70
2023-03-17T04:58:39.393Z,10.35
2023-03-17T05:00:41.014Z,10.18
2023-03-17T05:02:42.781Z,8.48
2023-03-17T05:04:45.964Z,8.88
2023-03-17T05:06:47.543Z,8.48
2023-03-17T05:08:49.322Z,9.73
2023-03-17T05:10:50.966Z,8.82
2023-03-17T05:12:52.537Z,8.00
2023-03-17T05:14:54.118Z,6.93
2023-03-17T05:16:55.776Z,7.63
2023-03-17T05:18:57.545Z,7.18
2023-03-17T05:21:00.804Z,8.20
2023-03-17T05:23:02.514Z,7.70
2023-03-17T05:25:04.678Z,9.90
2023-03-17T05:27:06.294Z,8.90
2023-03-17T05:29:07.983Z,8.60
2023-03-17T05:31:11.216Z,10.05
2023-03-17T05:33:13.380Z,10.23
2023-03-17T05:35:15.179Z,8.98
2023-03-17T05:37:18.288Z,9.45
2023-03-17T05:39:19.931Z,9.10
2023-03-17T05:41:21.401Z,8.82
2023-03-17T05:43:23.018Z,8.73
2023-03-17T05:45:24.580Z,9.63
2023-03-17T05:47:26.217Z,9.57
2023-03-17T05:49:28.540Z,10.13
2023-03-17T05:51:30.210Z,10.20
2023-03-17T05:53:33.447Z,10.73
2023-03-17T05:55:35.030Z,10.60
2023-03-17T05:57:36.648Z,12.57
2023-03-17T05:59:38.228Z,13.73
2023-03-17T06:01:39.795Z,13.68
2023-03-17T06:03:41.466Z,12.68
2023-03-17T06:05:43.129Z,11.30
2023-03-17T06:07:53.918Z,13.50
2023-03-17T06:09:58.768Z,14.85
2023-03-17T06:12:00.431Z,16.75
2023-03-17T06:14:02.049Z,15.55
2023-03-17T06:16:03.834Z,14.10
2023-03-17T06:18:05.782Z,13.68
2023-03-17T06:20:09.617Z,13.45
2023-03-17T06:22:11.498Z,14.68
2023-03-17T06:24:13.123Z,11.98
2023-03-17T06:26:16.212Z,13.00
2023-03-17T06:28:17.797Z,11.93
2023-03-17T06:30:19.651Z,10.82
2023-03-17T06:32:21.343Z,10.50
2023-03-17T06:34:24.213Z,10.95
2023-03-17T06:36:26.161Z,9.20
2023-03-17T06:38:28.053Z,9.35
2023-03-17T06:40:29.868Z,9.85
2023-03-17T06:42:32.864Z,11.30
2023-03-17T06:44:34.785Z,11.48
2023-03-17T06:46:36.755Z,10.27
2023-03-17T06:48:38.928Z,11.45
2023-03-17T06:50:40.483Z,10.13
2023-03-17T06:52:42.283Z,10.30
2023-03-17T06:54:43.829Z,10.98
2023-03-17T06:56:45.476Z,10.80
2023-03-17T06:58:48.770Z,11.48
2023-03-17T07:00:50.579Z,12.02
2023-03-17T07:02:52.151Z,12.15
2023-03-17T07:04:53.798Z,11.70
2023-03-17T07:06:55.407Z,11.10
2023-03-17T07:08:57.268Z,11.32
2023-03-17T07:10:58.873Z,11.48
2023-03-17T07:13:00.488Z,11.05
2023-03-17T07:15:03.790Z,9.93
2023-03-17T07:17:06.159Z,12.65
2023-03-17T07:19:07.826Z,10.07
2023-03-17T07:21:09.491Z,9.90
2023-03-17T07:23:14.561Z,10.13
2023-03-17T07:25:16.331Z,9.07
2023-03-17T07:27:18.154Z,9.43
2023-03-17T07:29:19.901Z,8.50
2023-03-17T07:31:22.921Z,10.10
2023-03-17T07:33:25.174Z,8.65
2023-03-17T07:35:26.845Z,9.93
2023-03-17T07:37:28.428Z,8.85
2023-03-17T07:39:30.050Z,9.50
2023-03-17T07:41:31.767Z,10.55
2023-03-17T07:43:33.348Z,10.00
2023-03-17T07:45:35.367Z,9.20
2023-03-17T07:47:38.478Z,10.60
2023-03-17T07:49:42.219Z,10.38
2023-03-17T07:51:44.195Z,10.70
2023-03-17T07:53:45.801Z,11.48
2023-03-17T07:55:52.067Z,12.10
2023-03-17T07:57:53.693Z,11.10
2023-03-17T07:59:55.431Z,9.95
2023-03-17T08:01:57.178Z,11.20
2023-03-17T08:04:00.561Z,12.30
2023-03-17T08:06:02.241Z,12.48
2023-03-17T08:08:03.860Z,11.15
2023-03-17T08:10:13.209Z,11.60
2023-03-17T08:12:14.938Z,11.57
2023-03-17T08:14:16.601Z,11.52
2023-03-17T08:16:18.289Z,10.27
2023-03-17T08:18:19.896Z,12.00
2023-03-17T08:20:23.019Z,11.02
2023-03-17T08:22:24.993Z,10.85
2023-03-17T08:24:26.601Z,9.70
2023-03-17T08:26:28.324Z,10.52
2023-03-17T08:28:30.176Z,10.02
2023-03-17T08:30:33.787Z,11.48
2023-03-17T08:32:35.701Z,10.77
2023-03-17T08:34:37.787Z,10.38
2023-03-17T08:36:40.717Z,10.30
2023-03-17T08:38:43.139Z,10.77
2023-03-17T08:40:45.165Z,9.93
2023-03-17T08:42:48.133Z,10.75
2023-03-17T08:44:49.951Z,9.85
2023-03-17T08:46:51.698Z,10.57
2023-03-17T08:48:55.262Z,10.25
2023-03-17T08:50:57.598Z,10.23
2023-03-17T08:53:00.548Z,9.70
2023-03-17T08:55:02.754Z,9.60
2023-03-17T08:57:04.561Z,9.15
2023-03-17T08:59:07.216Z,9.75
2023-03-17T09:01:09.816Z,12.65
2023-03-17T09:03:11.439Z,12.00
2023-03-17T09:05:14.628Z,10.60
2023-03-17T09:07:16.251Z,11.38
2023-03-17T09:09:19.175Z,10.60
2023-03-17T09:11:25.323Z,11.50
2023-03-17T09:13:27.000Z,10.30
2023-03-17T09:15:29.106Z,12.33
2023-03-17T09:17:30.858Z,10.20
2023-03-17T09:19:32.402Z,10.65
2023-03-17T09:21:34.025Z,9.97
2023-03-17T09:23:35.615Z,10.23
2023-03-17T09:25:40.355Z,10.30
2023-03-17T09:27:42.117Z,9.80
2023-03-17T09:29:51.258Z,9.87
2023-03-17T09:31:54.369Z,9.53
2023-03-17T09:33:55.974Z,9.10
2023-03-17T09:35:57.873Z,9.87
2023-03-17T09:37:59.588Z,9.93
2023-03-17T09:40:01.119Z,10.67
2023-03-17T09:42:18.018Z,10.20
2023-03-17T09:44:58.685Z,9.27
2023-03-17T09:47:13.365Z,10.23
2023-03-17T09:49:18.307Z,9.00
2023-03-17T09:51:20.055Z,9.23
2023-03-17T09:53:25.808Z,8.93
2023-03-17T09:55:30.172Z,9.40
2023-03-17T09:57:36.174Z,7.30
2023-03-17T09:59:42.154Z,9.40
2023-03-17T10:01:44.036Z,7.87
2023-03-17T10:03:46.804Z,7.40
2023-03-17T10:05:48.469Z,7.07
2023-03-17T10:07:59.053Z,7.23
2023-03-17T10:10:02.853Z,7.73
2023-03-17T10:12:09.793Z,7.40
2023-03-17T10:14:41.828Z,7.17
2023-03-17T10:16:51.667Z,5.40
2023-03-17T10:18:57.068Z,5.23
2023-03-17T10:21:03.562Z,5.43
2023-03-17T10:23:07.485Z,5.70
2023-03-17T10:25:14.336Z,5.40
2023-03-17T10:27:17.780Z,5.43
2023-03-17T10:29:21.777Z,5.30
2023-03-17T10:31:29.454Z,5.33
2023-03-17T10:33:31.004Z,5.43
2023-03-17T10:35:33.184Z,5.40
2023-03-17T10:37:35.025Z,5.83
2023-03-17T10:39:43.649Z,6.20
2023-03-17T10:41:54.488Z,5.57
2023-03-17T10:43:57.975Z,6.50
2023-03-17T10:46:04.514Z,6.40
2023-03-17T10:48:10.032Z,6.40
2023-03-17T10:50:20.423Z,5.53
2023-03-17T10:52:26.687Z,5.93
2023-03-17T10:54:28.292Z,6.00
2023-03-17T10:56:34.734Z,5.80
2023-03-17T10:58:38.978Z,6.40
2023-03-17T11:00:53.692Z,6.70
2023-03-17T11:02:57.578Z,6.07
2023-03-17T11:05:04.387Z,8.20
2023-03-17T11:07:08.437Z,5.60
2023-03-17T11:09:16.695Z,7.00
2023-03-17T11:11:24.720Z,6.63
2023-03-17T11:13:29.443Z,5.70
2023-03-17T11:15:34.254Z,5.27
2023-03-17T11:17:45.426Z,6.60
2023-03-17T11:19:54.441Z,5.90
2023-03-17T11:22:08.488Z,6.10
2023-03-17T11:24:14.514Z,5.80
2023-03-17T11:26:43.393Z,5.80
2023-03-17T11:28:53.196Z,5.90
2023-03-17T11:31:03.624Z,5.80
2023-03-17T11:33:13.753Z,5.70
2023-03-17T11:35:46.128Z,7.27
2023-03-17T11:38:05.185Z,5.80
2023-03-17T11:40:14.995Z,5.27
2023-03-17T11:42:23.089Z,6.00
2023-03-17T11:45:09.392Z,5.83
2023-03-17T11:47:24.708Z,5.77
2023-03-17T11:49:31.798Z,5.43
2023-03-17T11:51:49.527Z,5.53
2023-03-17T11:54:03.263Z,4.77
2023-03-17T11:56:10.706Z,5.10
2023-03-17T11:58:20.063Z,5.07
2023-03-17T12:00:29.989Z,4.60
2023-03-17T12:02:40.670Z,6.03
2023-03-17T12:04:51.661Z,5.33
2023-03-17T12:06:59.751Z,5.10
2023-03-17T12:09:10.863Z,4.70
2023-03-17T12:11:16.380Z,7.17
2023-03-17T12:13:24.460Z,4.90
2023-03-17T12:15:34.206Z,5.00
2023-03-17T12:17:43.557Z,5.23
2023-03-17T12:19:57.001Z,5.53
2023-03-17T12:22:06.288Z,6.00
2023-03-17T12:24:15.257Z,5.77
2023-03-17T12:26:20.016Z,5.60
2023-03-17T12:28:26.332Z,5.10
2023-03-17T12:30:33.538Z,4.80
2023-03-17T12:32:39.395Z,6.60
2023-03-17T12:34:46.668Z,5.63
2023-03-17T12:36:48.773Z,6.07
2023-03-17T12:38:56.359Z,5.67
2023-03-17T12:41:36.361Z,5.93
2023-03-17T12:43:46.683Z,5.77
2023-03-17T12:46:10.289Z,5.90
2023-03-17T12:48:24.268Z,5.63
2023-03-17T12:50:37.366Z,5.20
2023-03-17T12:53:01.640Z,5.30
2023-03-17T12:55:09.352Z,5.20
2023-03-17T12:57:15.014Z,5.60
2023-03-17T12:59:21.723Z,4.87
2023-03-17T13:01:31.176Z,6.47
2023-03-17T13:03:34.164Z,6.20
2023-03-17T13:05:35.874Z,5.27
2023-03-17T13:07:41.306Z,6.70
2023-03-17T13:09:46.971Z,6.00
2023-03-17T13:11:48.779Z,6.40
2023-03-17T13:14:14.100Z,6.77
2023-03-17T13:16:33.014Z,5.70
2023-03-17T13:18:50.146Z,6.00
2023-03-17T13:21:08.004Z,7.10
2023-03-17T13:23:14.612Z,6.40
2023-03-17T13:25:30.694Z,5.87
2023-03-17T13:27:44.672Z,5.70
2023-03-17T13:29:47.912Z,5.67
2023-03-17T13:31:49.687Z,5.27
2023-03-17T13:33:53.860Z,5.30
2023-03-17T13:36:19.595Z,5.50
2023-03-17T13:38:34.820Z,5.60
2023-03-17T13:40:45.651Z,5.23
2023-03-17T13:43:07.550Z,5.77
2023-03-17T13:45:21.446Z,6.20
2023-03-17T13:47:32.441Z,6.20
2023-03-17T13:49:34.277Z,5.63
2023-03-17T13:51:36.781Z,6.07
2023-03-17T13:53:42.499Z,5.77
2023-03-17T13:56:08.639Z,5.90
2023-03-17T13:58:34.219Z,5.70
2023-03-17T14:00:40.539Z,6.33
2023-03-17T14:02:44.039Z,4.97
2023-03-17T14:04:52.841Z,5.93
2023-03-17T14:06:58.220Z,5.83
2023-03-17T14:09:03.380Z,5.40
2023-03-17T14:11:16.196Z,5.03
2023-03-17T14:13:23.313Z,4.53
2023-03-17T14:15:29.353Z,4.53
2023-03-17T14:17:39.467Z,5.03
2023-03-17T14:19:41.214Z,5.40
2023-03-17T14:21:42.805Z,5.97
2023-03-17T14:23:52.898Z,5.70
2023-03-17T14:25:56.495Z,6.00
2023-03-17T14:27:58.826Z,5.67
2023-03-17T14:30:06.636Z,5.60
2023-03-17T14:32:15.116Z,5.10
2023-03-17T14:34:21.921Z,4.37
2023-03-17T14:36:24.487Z,4.90
2023-03-17T14:38:28.526Z,4.70
2023-03-17T14:40:31.683Z,3.70
2023-03-17T14:42:33.423Z,5.10
2023-03-17T14:44:38.831Z,4.33
2023-03-17T14:46:40.547Z,4.00
2023-03-17T14:48:46.624Z,3.90
2023-03-17T14:50:53.372Z,3.50
2023-03-17T14:52:55.611Z,5.17
2023-03-17T14:54:59.103Z,5.33
2023-03-17T14:57:02.841Z,4.90
2023-03-17T14:59:07.679Z,4.20
2023-03-17T15:01:16.327Z,4.80
2023-03-17T15:03:23.361Z,3.77
2023-03-17T15:05:28.040Z,4.00
2023-03-17T15:07:37.002Z,4.23
2023-03-17T15:09:40.220Z,4.37
2023-03-17T15:11:43.777Z,5.00
2023-03-17T15:13:45.784Z,4.73
2023-03-17T15:15:47.476Z,4.23
2023-03-17T15:17:52.436Z,4.13
2023-03-17T15:19:56.754Z,4.30
2023-03-17T15:21:58.355Z,4.33
2023-03-17T15:24:18.710Z,4.87
2023-03-17T15:26:23.516Z,4.77
2023-03-17T15:28:30.892Z,4.93
2023-03-17T15:30:46.226Z,4.27
2023-03-17T15:32:57.578Z,5.27
2023-03-17T15:34:59.229Z,5.47
2023-03-17T15:37:00.854Z,4.53
2023-03-17T15:39:02.957Z,5.00
2023-03-17T15:41:06.352Z,4.70
2023-03-17T15:43:13.443Z,4.50
2023-03-17T15:45:16.650Z,3.90
2023-03-17T15:47:20.129Z,4.40
2023-03-17T15:49:21.740Z,4.40
2023-03-17T15:51:23.394Z,4.10
2023-03-17T15:53:25.045Z,4.70
2023-03-17T15:55:29.471Z,4.80
2023-03-17T15:57:32.531Z,4.77
2023-03-17T15:59:34.302Z,5.33
2023-03-17T16:01:37.158Z,5.80
2023-03-17T16:03:39.401Z,6.50
2023-03-17T16:05:42.268Z,5.50
2023-03-17T16:07:45.570Z,5.30
2023-03-17T16:09:49.769Z,4.87
2023-03-17T16:11:51.348Z,4.90
2023-03-17T16:13:54.618Z,4.97
2023-03-17T16:15:59.017Z,4.83
2023-03-17T16:18:03.538Z,4.60
2023-03-17T16:20:06.066Z,5.80
2023-03-17T16:22:25.153Z,4.83
2023-03-17T16:24:27.249Z,5.50
2023-03-17T16:26:28.841Z,5.00
2023-03-17T16:28:32.176Z,4.90
2023-03-17T16:30:35.147Z,4.30
2023-03-17T16:32:36.859Z,4.93
2023-03-17T16:34:38.621Z,5.77
2023-03-17T16:36:43.100Z,5.93
2023-03-17T16:38:44.878Z,8.17
2023-03-17T16:40:48.694Z,7.67
2023-03-17T16:42:50.794Z,7.37
2023-03-17T16:44:52.670Z,7.33
2023-03-17T16:46:55.678Z,8.87
2023-03-17T16:48:57.314Z,11.67
2023-03-17T16:51:01.985Z,10.10
2023-03-17T16:53:03.679Z,8.23
2023-03-17T16:55:05.936Z,8.47
2023-03-17T16:57:11.669Z,7.30
2023-03-17T16:59:18.932Z,8.57
2023-03-17T17:01:23.897Z,7.00
2023-03-17T17:03:27.002Z,6.93
2023-03-17T17:05:30.687Z,7.70
2023-03-17T17:07:32.271Z,8.00
2023-03-17T17:09:33.852Z,8.00
2023-03-17T17:11:35.510Z,7.83
2023-03-17T17:13:37.261Z,7.47
2023-03-17T17:15:39.658Z,8.53
2023-03-17T17:17:44.111Z,12.00
2023-03-17T17:19:47.084Z,11.37
2023-03-17T17:21:48.698Z,16.57
2023-03-17T17:23:52.760Z,14.70
2023-03-17T17:25:55.171Z,22.80
2023-03-17T17:27:57.519Z,18.40
2023-03-17T17:29:59.173Z,14.83
2023-03-17T17:32:00.757Z,15.97
2023-03-17T17:34:02.344Z,13.70
2023-03-17T17:36:08.268Z,15.00
2023-03-17T17:38:17.642Z,11.77
2023-03-17T17:40:24.016Z,9.50
2023-03-17T17:42:25.954Z,10.00
2023-03-17T17:44:27.517Z,9.33
2023-03-17T17:46:29.187Z,9.23
2023-03-17T17:48:30.905Z,9.27
2023-03-17T17:50:33.232Z,8.23
2023-03-17T17:52:36.382Z,8.13
2023-03-17T17:54:38.442Z,7.67
2023-03-17T17:56:40.113Z,8.90
2023-03-17T17:58:42.229Z,8.60
2023-03-17T18:00:44.558Z,10.43
2023-03-17T18:02:46.260Z,15.50
2023-03-17T18:04:47.942Z,9.87
2023-03-17T18:06:49.568Z,8.50
2023-03-17T18:08:52.640Z,9.00
2023-03-17T18:10:54.277Z,8.87
2023-03-17T18:12:56.377Z,11.27
2023-03-17T18:14:58.535Z,9.83
2023-03-17T18:17:02.969Z,10.33
2023-03-17T18:19:06.607Z,11.07
2023-03-17T18:21:08.431Z,13.20
2023-03-17T18:23:10.159Z,13.20
2023-03-17T18:25:13.595Z,13.63
2023-03-17T18:27:15.845Z,13.00
2023-03-17T18:29:17.516Z,13.53
2023-03-17T18:31:24.800Z,12.50
2023-03-17T18:33:27.995Z,12.87
2023-03-17T18:35:29.889Z,13.53
2023-03-17T18:37:33.046Z,16.37
2023-03-17T18:39:34.733Z,40.40
2023-03-17T18:41:38.354Z,23.73
2023-03-17T18:43:40.383Z,26.50
2023-03-17T18:45:44.512Z,31.77
2023-03-17T18:47:46.296Z,32.80
2023-03-17T18:49:48.180Z,30.50
2023-03-17T18:51:49.999Z,33.67
2023-03-17T18:53:51.643Z,36.97
2023-03-17T18:55:53.309Z,32.53
2023-03-17T18:57:58.368Z,29.60
2023-03-17T19:00:00.102Z,30.33
2023-03-17T19:02:02.628Z,26.07
2023-03-17T19:04:04.504Z,24.83
2023-03-17T19:06:11.622Z,24.80
2023-03-17T19:08:13.296Z,27.50
2023-03-17T19:10:15.534Z,28.33
2023-03-17T19:12:17.113Z,31.03
2023-03-17T19:14:20.098Z,31.70
2023-03-17T19:16:21.729Z,31.40
2023-03-17T19:18:23.892Z,25.23
2023-03-17T19:20:25.587Z,23.60
2023-03-17T19:22:27.334Z,24.20
2023-03-17T19:24:29.052Z,21.70
2023-03-17T19:26:31.053Z,16.10
2023-03-17T19:28:33.555Z,16.23
2023-03-17T19:30:36.568Z,14.20
2023-03-17T19:32:38.213Z,12.60
2023-03-17T19:34:40.084Z,15.13
2023-03-17T19:36:43.756Z,12.30
2023-03-17T19:38:45.549Z,12.73
2023-03-17T19:40:47.212Z,11.73
2023-03-17T19:42:48.832Z,10.37
2023-03-17T19:44:50.471Z,10.70
2023-03-17T19:46:53.700Z,33.77
2023-03-17T19:48:55.906Z,31.97
2023-03-17T19:50:57.628Z,13.87
2023-03-17T19:52:59.268Z,10.37
2023-03-17T19:55:00.848Z,10.07
2023-03-17T19:57:02.479Z,9.90
2023-03-17T19:59:04.562Z,9.20
2023-03-17T20:01:06.485Z,8.80
2023-03-17T20:03:11.938Z,8.07
2023-03-17T20:05:16.142Z,8.23
2023-03-17T20:07:17.755Z,8.93
2023-03-17T20:09:19.390Z,9.80
2023-03-17T20:11:20.984Z,9.43
2023-03-17T20:13:22.635Z,9.13
2023-03-17T20:15:24.413Z,7.67
2023-03-17T20:17:26.471Z,8.67
2023-03-17T20:19:31.904Z,9.57
2023-03-17T20:21:33.529Z,9.40
2023-03-17T20:23:35.149Z,8.40
2023-03-17T20:25:36.779Z,9.30
2023-03-17T20:27:39.380Z,9.93
2023-03-17T20:29:41.031Z,10.53
2023-03-17T20:31:42.913Z,10.90
2023-03-17T20:33:44.560Z,11.50
2023-03-17T20:35:47.577Z,10.90
2023-03-17T20:37:49.486Z,11.00
2023-03-17T20:39:51.196Z,10.30
2023-03-17T20:41:52.897Z,11.73
2023-03-17T20:43:54.508Z,12.03
2023-03-17T20:45:56.202Z,13.73
2023-03-17T20:47:57.987Z,13.30
2023-03-17T20:49:59.528Z,14.40
2023-03-17T20:52:02.744Z,12.17
2023-03-17T20:54:05.318Z,11.17
2023-03-17T20:56:07.224Z,11.80
2023-03-17T20:58:09.123Z,12.23
2023-03-17T21:00:14.600Z,12.50
2023-03-17T21:02:17.402Z,13.10
2023-03-17T21:04:19.236Z,13.87
2023-03-17T21:06:20.946Z,15.33
2023-03-17T21:08:23.994Z,15.37
2023-03-17T21:10:25.720Z,16.83
2023-03-17T21:12:27.569Z,16.00
2023-03-17T21:14:29.100Z,14.57
2023-03-17T21:16:30.822Z,15.87
2023-03-17T21:18:32.498Z,15.10
2023-03-17T21:20:34.291Z,16.17
2023-03-17T21:22:36.375Z,15.10
2023-03-17T21:24:39.876Z,22.50
2023-03-17T21:26:41.460Z,16.77
2023-03-17T21:28:43.508Z,17.00
2023-03-17T21:30:45.040Z,15.47
2023-03-17T21:32:46.628Z,16.50
2023-03-17T21:34:48.361Z,15.17
2023-03-17T21:36:49.968Z,13.37
2023-03-17T21:38:51.577Z,14.87
2023-03-17T21:40:54.802Z,14.40
2023-03-17T21:42:56.499Z,13.27
2023-03-17T21:44:58.095Z,14.10
2023-03-17T21:47:00.504Z,12.27
2023-03-17T21:49:02.123Z,12.90
2023-03-17T21:51:04.002Z,11.40
2023-03-17T21:53:05.745Z,11.57
2023-03-17T21:55:07.914Z,11.30
2023-03-17T21:57:10.844Z,10.07
2023-03-17T21:59:12.474Z,9.90
2023-03-17T22:01:15.868Z,11.40
2023-03-17T22:03:20.346Z,11.40
2023-03-17T22:05:21.955Z,11.47
2023-03-17T22:07:23.474Z,10.73
2023-03-17T22:09:25.087Z,10.53
2023-03-17T22:11:26.858Z,10.57
2023-03-17T22:13:31.917Z,12.17
2023-03-17T22:15:33.462Z,11.52
2023-03-17T22:17:35.092Z,15.73
2023-03-17T22:19:36.919Z,15.60
2023-03-17T22:21:38.528Z,12.60
2023-03-17T22:23:40.409Z,11.35
2023-03-17T22:25:41.936Z,8.80
2023-03-17T22:27:43.674Z,10.63
2023-03-17T22:29:47.279Z,9.53
2023-03-17T22:31:48.973Z,8.80
2023-03-17T22:33:52.647Z,7.90
2023-03-17T22:35:54.228Z,8.30
2023-03-17T22:37:55.829Z,8.03
2023-03-17T22:39:57.419Z,7.70
2023-03-17T22:41:59.014Z,7.27
2023-03-17T22:44:00.537Z,7.80
2023-03-17T22:46:04.567Z,7.43
2023-03-17T22:48:06.650Z,6.90
2023-03-17T22:50:09.759Z,7.40
2023-03-17T22:52:11.488Z,7.20
2023-03-17T22:54:14.413Z,8.17
2023-03-17T22:56:17.416Z,7.70
2023-03-17T22:58:18.996Z,8.17
2023-03-17T23:00:21.094Z,7.73
2023-03-17T23:02:24.822Z,7.13
2023-03-17T23:04:26.365Z,6.97
2023-03-17T23:06:28.402Z,7.00
2023-03-17T23:08:31.171Z,7.77
2023-03-17T23:10:33.124Z,7.90
2023-03-17T23:12:35.435Z,8.00
2023-03-17T23:14:37.074Z,7.90
2023-03-17T23:16:38.939Z,8.50
2023-03-17T23:18:43.294Z,8.70
2023-03-17T23:20:46.293Z,8.03
2023-03-17T23:22:48.096Z,8.70
2023-03-17T23:24:49.719Z,8.15
2023-03-17T23:26:51.362Z,7.70
2023-03-17T23:28:53.444Z,8.00
2023-03-17T23:30:55.731Z,7.57
2023-03-17T23:32:57.664Z,7.90
2023-03-17T23:35:00.841Z,7.67
2023-03-17T23:37:02.413Z,7.70
2023-03-17T23:39:04.024Z,8.90
2023-03-17T23:41:06.130Z,8.80
2023-03-17T23:43:07.782Z,9.27
2023-03-17T23:45:10.426Z,10.50
2023-03-17T23:47:12.784Z,9.70
2023-03-17T23:49:14.394Z,9.43
2023-03-17T23:51:18.191Z,8.00
2023-03-17T23:53:20.480Z,8.40
2023-03-17T23:55:22.049Z,8.30
2023-03-17T23:57:23.975Z,9.07
2023-03-17T23:59:26.615Z,7.70
